createdAt,value
2022-10-12T00:01:25.195Z,97106.31
2022-10-12T00:03:54.982Z,97109.59
2022-10-12T00:06:25.096Z,97107.44
2022-10-12T00:08:55.461Z,97112.06
2022-10-12T00:11:27.151Z,97109.34
2022-10-12T00:13:57.140Z,97118.59
2022-10-12T00:16:26.611Z,97114.22
2022-10-12T00:18:58.427Z,97104.41
2022-10-12T00:21:28.181Z,97107.94
2022-10-12T00:23:58.962Z,97109.84
2022-10-12T00:26:29.175Z,97114.22
2022-10-12T00:29:00.012Z,97123.22
2022-10-12T00:31:30.166Z,97122.88
2022-10-12T00:34:03.192Z,97119.81
2022-10-12T00:36:34.007Z,97118.97
2022-10-12T00:39:04.546Z,97117.44
2022-10-12T00:41:37.954Z,97109.75
2022-10-12T00:44:36.384Z,97107.84
2022-10-12T00:47:08.515Z,97113.22
2022-10-12T00:49:39.000Z,97103.63
2022-10-12T00:52:11.620Z,97102.22
2022-10-12T00:54:47.631Z,97099.59
2022-10-12T00:57:19.747Z,97099.81
2022-10-12T00:59:53.185Z,97098.19
2022-10-12T01:02:22.887Z,97088.50
2022-10-12T01:04:53.452Z,97090.50
2022-10-12T01:07:22.276Z,97094.56
2022-10-12T01:09:51.195Z,97098.31
2022-10-12T01:12:20.890Z,97095.59
2022-10-12T01:14:49.390Z,97102.13
2022-10-12T01:17:31.214Z,97100.47
2022-10-12T01:20:26.760Z,97098.47
2022-10-12T01:23:07.310Z,97099.78
2022-10-12T01:25:55.073Z,97089.63
2022-10-12T01:28:37.355Z,97097.31
2022-10-12T01:31:16.873Z,97091.91
2022-10-12T01:33:49.650Z,97081.53
2022-10-12T01:36:27.230Z,97097.34
2022-10-12T01:39:02.012Z,97099.50
2022-10-12T01:41:36.171Z,97098.91
2022-10-12T01:44:04.620Z,97097.75
2022-10-12T01:46:48.048Z,97095.97
2022-10-12T01:49:19.090Z,97109.59
2022-10-12T01:52:09.670Z,97108.69
2022-10-12T01:54:51.258Z,97110.22
2022-10-12T01:57:29.838Z,97098.63
2022-10-12T02:00:05.217Z,97105.84
2022-10-12T02:02:45.977Z,97100.88
2022-10-12T02:05:19.943Z,97103.84
2022-10-12T02:07:53.439Z,97093.19
2022-10-12T02:10:30.177Z,97094.28
2022-10-12T02:13:02.880Z,97096.88
2022-10-12T02:15:33.240Z,97097.50
2022-10-12T02:18:05.566Z,97093.22
2022-10-12T02:20:38.008Z,97097.50
2022-10-12T02:23:06.584Z,97096.88
2022-10-12T02:25:36.252Z,97089.56
2022-10-12T02:28:09.687Z,97079.88
2022-10-12T02:30:46.283Z,97089.19
2022-10-12T02:33:24.771Z,97080.78
2022-10-12T02:35:59.976Z,97081.84
2022-10-12T02:38:34.020Z,97087.78
2022-10-12T02:41:05.825Z,97079.75
2022-10-12T02:43:40.416Z,97080.91
2022-10-12T02:46:11.562Z,97077.16
2022-10-12T02:48:42.983Z,97076.53
2022-10-12T02:51:12.438Z,97078.56
2022-10-12T02:53:41.951Z,97071.47
2022-10-12T02:56:14.205Z,97074.06
2022-10-12T02:58:44.798Z,97076.09
2022-10-12T03:01:15.021Z,97078.00
2022-10-12T03:03:45.424Z,97075.28
2022-10-12T03:06:14.703Z,97068.06
2022-10-12T03:08:43.060Z,97071.59
2022-10-12T03:11:14.743Z,97076.47
2022-10-12T03:13:43.313Z,97066.41
2022-10-12T03:16:13.434Z,97065.34
2022-10-12T03:18:42.302Z,97073.63
2022-10-12T03:21:12.711Z,97076.34
2022-10-12T03:23:41.059Z,97076.78
2022-10-12T03:26:10.146Z,97068.44
2022-10-12T03:28:38.824Z,97064.06
2022-10-12T03:31:07.313Z,97056.16
2022-10-12T03:33:35.646Z,97065.97
2022-10-12T03:36:05.154Z,97063.34
2022-10-12T03:38:34.892Z,97060.06
2022-10-12T03:41:06.705Z,97066.31
2022-10-12T03:43:35.954Z,97071.28
2022-10-12T03:46:04.331Z,97078.38
2022-10-12T03:48:32.920Z,97080.03
2022-10-12T03:51:01.318Z,97075.03
2022-10-12T03:53:29.672Z,97074.84
2022-10-12T03:55:59.471Z,97080.59
2022-10-12T03:58:28.286Z,97078.00
2022-10-12T04:00:57.032Z,97088.97
2022-10-12T04:03:25.865Z,97086.38
2022-10-12T04:05:55.621Z,97085.94
2022-10-12T04:08:26.770Z,97076.72
2022-10-12T04:10:56.115Z,97082.13
2022-10-12T04:13:25.977Z,97086.75
2022-10-12T04:15:54.348Z,97090.28
2022-10-12T04:18:23.115Z,97081.31
2022-10-12T04:20:51.696Z,97078.09
2022-10-12T04:23:20.445Z,97077.88
2022-10-12T04:25:48.834Z,97084.13
2022-10-12T04:28:17.869Z,97085.94
2022-10-12T04:30:48.259Z,97080.50
2022-10-12T04:33:16.700Z,97088.03
2022-10-12T04:35:45.237Z,97079.44
2022-10-12T04:38:14.030Z,97077.88
2022-10-12T04:40:43.067Z,97082.84
2022-10-12T04:43:11.427Z,97079.50
2022-10-12T04:45:40.498Z,97089.34
2022-10-12T04:48:10.449Z,97077.41
2022-10-12T04:50:39.507Z,97084.25
2022-10-12T04:53:07.874Z,97084.00
2022-10-12T04:55:39.239Z,97078.56
2022-10-12T04:58:07.707Z,97081.28
2022-10-12T05:00:36.370Z,97079.88
2022-10-12T05:03:06.315Z,97081.78
2022-10-12T05:05:36.573Z,97080.72
2022-10-12T05:08:05.754Z,97077.16
2022-10-12T05:10:34.595Z,97074.44
2022-10-12T05:13:03.319Z,97079.06
2022-10-12T05:15:31.784Z,97076.91
2022-10-12T05:18:00.976Z,97080.47
2022-10-12T05:20:29.631Z,97076.59
2022-10-12T05:23:00.026Z,97073.50
2022-10-12T05:25:29.457Z,97075.28
2022-10-12T05:27:58.854Z,97073.63
2022-10-12T05:30:27.618Z,97071.63
2022-10-12T05:32:56.190Z,97078.72
2022-10-12T05:35:25.217Z,97086.06
2022-10-12T05:37:53.748Z,97089.22
2022-10-12T05:40:23.933Z,97087.56
2022-10-12T05:42:52.416Z,97093.00
2022-10-12T05:45:20.927Z,97095.97
2022-10-12T05:47:49.356Z,97098.53
2022-10-12T05:50:18.419Z,97107.88
2022-10-12T05:52:47.431Z,97106.34
2022-10-12T05:55:16.632Z,97118.16
2022-10-12T05:57:51.612Z,97123.25
2022-10-12T06:00:21.650Z,97121.81
2022-10-12T06:02:50.198Z,97129.97
2022-10-12T06:05:18.867Z,97127.03
2022-10-12T06:07:47.236Z,97119.47
2022-10-12T06:10:16.399Z,97132.34
2022-10-12T06:12:46.084Z,97132.34
2022-10-12T06:15:15.463Z,97134.00
2022-10-12T06:17:43.864Z,97131.31
2022-10-12T06:20:13.258Z,97133.53
2022-10-12T06:22:41.770Z,97124.69
2022-10-12T06:25:10.965Z,97127.97
2022-10-12T06:27:39.371Z,97128.09
2022-10-12T06:30:10.621Z,97132.09
2022-10-12T06:32:40.086Z,97131.28
2022-10-12T06:35:09.900Z,97143.81
2022-10-12T06:37:49.529Z,97141.91
2022-10-12T06:40:19.933Z,97136.00
2022-10-12T06:42:53.739Z,97141.78
2022-10-12T06:45:25.927Z,97136.47
2022-10-12T06:47:54.616Z,97144.28
2022-10-12T06:50:22.985Z,97142.03
2022-10-12T06:52:51.447Z,97135.06
2022-10-12T06:55:20.684Z,97145.81
2022-10-12T06:57:49.117Z,97144.03
2022-10-12T07:00:18.671Z,97140.94
2022-10-12T07:02:50.279Z,97148.72
2022-10-12T07:05:19.092Z,97152.59
2022-10-12T07:07:47.866Z,97153.06
2022-10-12T07:10:16.656Z,97148.19
2022-10-12T07:12:45.058Z,97154.78
2022-10-12T07:15:13.539Z,97148.38
2022-10-12T07:17:42.360Z,97152.88
2022-10-12T07:20:12.618Z,97153.22
2022-10-12T07:22:41.853Z,97151.41
2022-10-12T07:25:10.838Z,97154.81
2022-10-12T07:27:39.662Z,97152.03
2022-10-12T07:30:10.522Z,97157.91
2022-10-12T07:32:38.901Z,97162.94
2022-10-12T07:35:08.364Z,97153.59
2022-10-12T07:37:38.558Z,97152.84
2022-10-12T07:40:09.629Z,97155.16
2022-10-12T07:42:53.719Z,97159.88
2022-10-12T07:45:28.630Z,97145.34
2022-10-12T07:47:57.243Z,97150.63
2022-10-12T07:50:26.601Z,97153.53
2022-10-12T07:52:56.316Z,97151.88
2022-10-12T07:55:25.390Z,97158.97
2022-10-12T07:57:54.165Z,97164.34
2022-10-12T08:00:22.816Z,97160.03
2022-10-12T08:02:51.165Z,97164.09
2022-10-12T08:05:21.250Z,97165.41
2022-10-12T08:07:49.728Z,97157.56
2022-10-12T08:10:20.476Z,97159.47
2022-10-12T08:12:52.083Z,97167.75
2022-10-12T08:15:20.742Z,97156.66
2022-10-12T08:17:50.016Z,97159.56
2022-10-12T08:20:19.114Z,97163.75
2022-10-12T08:22:48.177Z,97161.44
2022-10-12T08:25:16.775Z,97171.19
2022-10-12T08:27:47.077Z,97169.19
2022-10-12T08:30:15.932Z,97169.03
2022-10-12T08:32:44.317Z,97165.91
2022-10-12T08:35:12.788Z,97166.50
2022-10-12T08:37:42.293Z,97166.16
2022-10-12T08:40:15.697Z,97166.56
2022-10-12T08:42:57.079Z,97165.63
2022-10-12T08:45:48.679Z,97162.94
2022-10-12T08:48:20.194Z,97169.75
2022-10-12T08:50:54.770Z,97164.03
2022-10-12T08:53:27.032Z,97169.34
2022-10-12T08:55:56.815Z,97161.88
2022-10-12T08:58:32.253Z,97170.66
2022-10-12T09:01:16.548Z,97167.66
2022-10-12T09:03:56.640Z,97169.78
2022-10-12T09:06:30.262Z,97171.53
2022-10-12T09:09:10.910Z,97170.50
2022-10-12T09:11:51.802Z,97171.78
2022-10-12T09:14:26.120Z,97164.75
2022-10-12T09:16:57.454Z,97172.28
2022-10-12T09:19:30.803Z,97171.25
2022-10-12T09:21:59.384Z,97176.59
2022-10-12T09:24:32.664Z,97177.47
2022-10-12T09:27:05.490Z,97181.16
2022-10-12T09:29:35.560Z,97179.75
2022-10-12T09:32:21.295Z,97173.91
2022-10-12T09:34:50.478Z,97179.13
2022-10-12T09:37:23.084Z,97169.88
2022-10-12T09:39:52.305Z,97174.88
2022-10-12T09:42:21.559Z,97180.28
2022-10-12T09:44:56.698Z,97175.91
2022-10-12T09:47:28.847Z,97175.44
2022-10-12T09:50:01.093Z,97178.09
2022-10-12T09:52:33.097Z,97181.66
2022-10-12T09:55:05.525Z,97177.28
2022-10-12T09:57:37.309Z,97173.53
2022-10-12T10:00:24.358Z,97174.09
2022-10-12T10:02:54.511Z,97176.91
2022-10-12T10:05:28.613Z,97170.91
2022-10-12T10:08:18.610Z,97173.94
2022-10-12T10:10:51.938Z,97170.38
2022-10-12T10:13:21.963Z,97169.28
2022-10-12T10:16:02.649Z,97178.31
2022-10-12T10:18:35.800Z,97179.97
2022-10-12T10:21:07.535Z,97177.56
2022-10-12T10:23:40.648Z,97180.38
2022-10-12T10:26:12.275Z,97181.47
2022-10-12T10:28:42.183Z,97180.94
2022-10-12T10:31:23.608Z,97166.91
2022-10-12T10:34:12.650Z,97177.03
2022-10-12T10:36:46.401Z,97167.94
2022-10-12T10:39:21.808Z,97178.53
2022-10-12T10:41:51.740Z,97169.13
2022-10-12T10:44:26.205Z,97172.25
2022-10-12T10:46:58.191Z,97173.47
2022-10-12T10:49:35.020Z,97168.31
2022-10-12T10:52:05.082Z,97172.75
2022-10-12T10:54:36.484Z,97163.28
2022-10-12T10:57:11.144Z,97157.66
2022-10-12T10:59:46.547Z,97161.28
2022-10-12T11:02:28.109Z,97163.16
2022-10-12T11:05:04.474Z,97163.72
2022-10-12T11:07:38.611Z,97162.94
2022-10-12T11:10:21.632Z,97163.53
2022-10-12T11:12:55.927Z,97172.25
2022-10-12T11:15:28.282Z,97160.19
2022-10-12T11:18:08.822Z,97158.88
2022-10-12T11:20:51.399Z,97155.47
2022-10-12T11:23:28.462Z,97158.22
2022-10-12T11:26:05.204Z,97160.75
2022-10-12T11:28:34.730Z,97155.25
2022-10-12T11:31:03.643Z,97162.28
2022-10-12T11:33:39.464Z,97149.06
2022-10-12T11:36:11.278Z,97155.09
2022-10-12T11:38:44.099Z,97153.16
2022-10-12T11:41:35.074Z,97145.00
2022-10-12T11:44:11.898Z,97140.28
2022-10-12T11:46:48.421Z,97140.91
2022-10-12T11:49:27.777Z,97118.84
2022-10-12T11:51:59.188Z,97133.72
2022-10-12T11:54:34.025Z,97134.91
2022-10-12T11:57:08.791Z,97124.53
2022-10-12T11:59:42.619Z,97135.00
2022-10-12T12:02:18.815Z,97139.50
2022-10-12T12:04:50.422Z,97130.34
2022-10-12T12:07:48.318Z,97134.97
2022-10-12T12:10:59.782Z,97131.38
2022-10-12T12:13:28.547Z,97126.72
2022-10-12T12:16:34.990Z,97128.97
2022-10-12T12:19:18.747Z,97127.03
2022-10-12T12:22:29.027Z,97120.75
2022-10-12T12:25:15.114Z,97127.66
2022-10-12T12:27:46.613Z,97125.28
2022-10-12T12:30:37.340Z,97120.38
2022-10-12T12:33:25.776Z,97126.94
2022-10-12T12:35:58.014Z,97126.38
2022-10-12T12:38:34.192Z,97127.47
2022-10-12T12:41:10.390Z,97123.41
2022-10-12T12:44:04.098Z,97120.97
2022-10-12T12:50:01.583Z,97119.25
2022-10-12T12:52:34.024Z,97122.22
2022-10-12T12:55:41.636Z,97113.47
2022-10-12T12:58:37.544Z,97117.78
2022-10-12T13:01:25.986Z,97110.91
2022-10-12T13:04:19.023Z,97113.47
2022-10-12T13:07:30.655Z,97106.69
2022-10-12T13:10:11.362Z,97101.47
2022-10-12T13:13:09.743Z,97096.09
2022-10-12T13:15:48.328Z,97106.25
2022-10-12T13:18:47.554Z,97105.97
2022-10-12T13:21:20.715Z,97106.16
2022-10-12T13:23:51.233Z,97108.28
2022-10-12T13:26:24.937Z,97115.00
2022-10-12T13:28:56.246Z,97105.94
2022-10-12T13:31:29.132Z,97102.50
2022-10-12T13:34:10.633Z,97103.16
2022-10-12T13:36:50.284Z,97087.50
2022-10-12T13:39:21.510Z,97102.25
2022-10-12T13:41:53.369Z,97102.22
2022-10-12T13:44:27.610Z,97104.50
2022-10-12T13:46:59.274Z,97100.94
2022-10-12T13:49:29.805Z,97103.72
2022-10-12T13:52:00.600Z,97111.69
2022-10-12T13:54:38.190Z,97105.97
2022-10-12T13:57:19.160Z,97099.16
2022-10-12T13:59:53.617Z,97094.38
2022-10-12T14:02:24.922Z,97093.25
2022-10-12T14:04:56.107Z,97093.97
2022-10-12T14:07:27.442Z,97097.06
2022-10-12T14:10:07.031Z,97089.31
2022-10-12T14:12:37.432Z,97085.97
2022-10-12T14:15:09.165Z,97083.06
2022-10-12T14:17:44.542Z,97084.66
2022-10-12T14:20:18.672Z,97084.50
2022-10-12T14:22:50.197Z,97080.31
2022-10-12T14:25:21.395Z,97076.59
2022-10-12T14:27:56.241Z,97076.50
2022-10-12T14:30:29.941Z,97075.66
2022-10-12T14:33:11.866Z,97074.47
2022-10-12T14:35:42.156Z,97076.31
2022-10-12T14:38:38.173Z,97087.16
2022-10-12T14:41:35.840Z,97079.81
2022-10-12T14:44:10.626Z,97080.09
2022-10-12T14:46:43.713Z,97083.88
2022-10-12T14:49:18.449Z,97077.13
2022-10-12T14:51:47.774Z,97075.25
2022-10-12T14:54:16.497Z,97074.75
2022-10-12T14:56:47.499Z,97075.72
2022-10-12T14:59:15.976Z,97072.94
2022-10-12T15:01:47.771Z,97062.53
2022-10-12T15:04:20.090Z,97065.84
2022-10-12T15:06:51.100Z,97065.00
2022-10-12T15:09:20.282Z,97069.88
2022-10-12T15:11:48.648Z,97059.03
2022-10-12T15:14:17.507Z,97060.34
2022-10-12T15:16:48.307Z,97062.47
2022-10-12T15:19:16.710Z,97055.72
2022-10-12T15:21:45.165Z,97059.84
2022-10-12T15:24:16.301Z,97060.94
2022-10-12T15:26:44.695Z,97059.59
2022-10-12T15:29:13.416Z,97055.88
2022-10-12T15:31:41.782Z,97057.59
2022-10-12T15:34:14.696Z,97051.09
2022-10-12T15:36:43.397Z,97049.25
2022-10-12T15:39:12.042Z,97053.69
2022-10-12T15:41:40.850Z,97052.06
2022-10-12T15:44:12.480Z,97053.78
2022-10-12T15:46:42.010Z,97049.41
2022-10-12T15:49:13.379Z,97055.22
2022-10-12T15:51:48.292Z,97051.16
2022-10-12T15:54:17.452Z,97055.00
2022-10-12T15:56:46.921Z,97053.03
2022-10-12T15:59:15.847Z,97050.06
2022-10-12T16:01:44.841Z,97053.88
2022-10-12T16:04:16.874Z,97049.78
2022-10-12T16:06:46.970Z,97052.47
2022-10-12T16:09:15.313Z,97053.56
2022-10-12T16:11:43.775Z,97048.38
2022-10-12T16:14:15.180Z,97041.50
2022-10-12T16:16:43.629Z,97045.03
2022-10-12T16:19:11.995Z,97052.16
2022-10-12T16:21:42.053Z,97044.19
2022-10-12T16:24:12.995Z,97047.69
2022-10-12T16:26:44.865Z,97044.66
2022-10-12T16:29:14.577Z,97045.72
2022-10-12T16:34:16.755Z,97053.03
2022-10-12T16:36:46.884Z,97054.13
2022-10-12T16:39:15.250Z,97056.28
2022-10-12T16:41:44.171Z,97061.22
2022-10-12T16:44:12.901Z,97066.94
2022-10-12T16:46:41.745Z,97059.78
2022-10-12T16:49:10.181Z,97060.28
2022-10-12T16:51:41.589Z,97063.53
2022-10-12T16:54:11.686Z,97067.84
2022-10-12T16:56:40.058Z,97065.94
2022-10-12T16:59:08.944Z,97076.06
2022-10-12T17:01:37.344Z,97075.19
2022-10-12T17:04:06.681Z,97075.41
2022-10-12T17:06:35.082Z,97074.22
2022-10-12T17:09:04.564Z,97072.97
2022-10-12T17:11:38.831Z,97058.19
2022-10-12T17:14:08.661Z,97065.03
2022-10-12T17:16:52.683Z,97066.63
2022-10-12T17:19:22.737Z,97061.63
2022-10-12T17:21:52.566Z,97066.00
2022-10-12T17:24:24.676Z,97070.06
2022-10-12T17:26:55.144Z,97069.09
2022-10-12T17:29:25.539Z,97080.28
2022-10-12T17:32:00.487Z,97080.16
2022-10-12T17:34:41.226Z,97073.84
2022-10-12T17:37:12.625Z,97065.03
2022-10-12T17:39:43.651Z,97068.44
2022-10-12T17:42:14.033Z,97072.44
2022-10-12T17:44:42.623Z,97070.53
2022-10-12T17:47:11.414Z,97077.31
2022-10-12T17:49:42.887Z,97073.44
2022-10-12T17:52:14.337Z,97068.16
2022-10-12T17:54:43.203Z,97070.81
2022-10-12T17:57:12.891Z,97070.81
2022-10-12T17:59:41.272Z,97070.56
2022-10-12T18:02:11.399Z,97069.28
2022-10-12T18:04:39.748Z,97067.38
2022-10-12T18:07:08.585Z,97078.91
2022-10-12T18:09:38.055Z,97080.19
2022-10-12T18:12:06.801Z,97080.72
2022-10-12T18:14:36.565Z,97081.25
2022-10-12T18:17:05.352Z,97076.78
2022-10-12T18:19:33.965Z,97075.91
2022-10-12T18:22:02.427Z,97078.28
2022-10-12T18:24:31.489Z,97076.06
2022-10-12T18:27:00.238Z,97084.50
2022-10-12T18:29:28.672Z,97075.81
2022-10-12T18:32:02.168Z,97084.00
2022-10-12T18:34:35.670Z,97078.66
2022-10-12T18:37:05.157Z,97084.94
2022-10-12T18:39:33.667Z,97085.00
2022-10-12T18:42:02.533Z,97089.41
2022-10-12T18:44:37.502Z,97092.69
2022-10-12T18:47:07.396Z,97086.06
2022-10-12T18:49:38.042Z,97090.44
2022-10-12T18:52:06.576Z,97088.53
2022-10-12T18:54:36.027Z,97089.88
2022-10-12T18:57:04.610Z,97083.78
2022-10-12T18:59:33.507Z,97080.16
2022-10-12T19:02:02.506Z,97081.75
2022-10-12T19:04:32.282Z,97077.69
2022-10-12T19:07:00.970Z,97087.28
2022-10-12T19:09:30.065Z,97076.59
2022-10-12T19:11:58.890Z,97086.38
2022-10-12T19:14:27.400Z,97084.06
2022-10-12T19:16:55.875Z,97088.09
2022-10-12T19:19:25.024Z,97075.38
2022-10-12T19:21:54.958Z,97070.19
2022-10-12T19:24:23.599Z,97075.81
2022-10-12T19:26:52.671Z,97076.56
2022-10-12T19:29:23.531Z,97077.88
2022-10-12T19:31:53.827Z,97074.34
2022-10-12T19:34:23.620Z,97066.66
2022-10-12T19:36:54.331Z,97072.69
2022-10-12T19:39:24.345Z,97081.13
2022-10-12T19:41:54.223Z,97077.81
2022-10-12T19:44:26.046Z,97083.50
2022-10-12T19:46:54.419Z,97086.56
2022-10-12T19:49:23.453Z,97090.44
2022-10-12T19:51:56.004Z,97085.50
2022-10-12T19:54:24.530Z,97094.25
2022-10-12T19:56:56.712Z,97096.97
2022-10-12T19:59:27.779Z,97105.03
2022-10-12T20:01:56.979Z,97094.66
2022-10-12T20:04:25.760Z,97094.97
2022-10-12T20:06:55.559Z,97097.47
2022-10-12T20:09:23.992Z,97090.28
2022-10-12T20:11:52.735Z,97088.63
2022-10-12T20:14:21.634Z,97091.84
2022-10-12T20:16:50.414Z,97085.06
2022-10-12T20:19:19.245Z,97089.47
2022-10-12T20:21:47.632Z,97089.13
2022-10-12T20:24:17.998Z,97077.91
2022-10-12T20:26:46.577Z,97091.38
2022-10-12T20:29:14.956Z,97091.09
2022-10-12T20:31:44.470Z,97094.56
2022-10-12T20:34:12.923Z,97087.97
2022-10-12T20:36:42.051Z,97102.25
2022-10-12T20:39:10.650Z,97097.03
2022-10-12T20:41:40.985Z,97100.00
2022-10-12T20:44:11.147Z,97097.84
2022-10-12T20:46:39.619Z,97090.03
2022-10-12T20:49:08.761Z,97092.25
2022-10-12T20:51:39.973Z,97088.69
2022-10-12T20:54:09.182Z,97083.41
2022-10-12T20:56:44.122Z,97076.00
2022-10-12T20:59:12.622Z,97077.94
2022-10-12T21:01:42.357Z,97083.13
2022-10-12T21:04:11.200Z,97069.78
2022-10-12T21:06:41.572Z,97075.31
2022-10-12T21:09:14.727Z,97080.03
2022-10-12T21:11:44.527Z,97074.22
2022-10-12T21:14:13.986Z,97062.94
2022-10-12T21:16:42.620Z,97074.81
2022-10-12T21:19:15.459Z,97069.47
2022-10-12T21:21:43.967Z,97065.66
2022-10-12T21:24:13.588Z,97067.56
2022-10-12T21:26:42.440Z,97066.13
2022-10-12T21:29:12.351Z,97064.22
2022-10-12T21:31:40.932Z,97061.50
2022-10-12T21:34:11.385Z,97071.94
2022-10-12T21:36:40.750Z,97068.28
2022-10-12T21:39:11.882Z,97063.91
2022-10-12T21:41:40.943Z,97063.56
2022-10-12T21:44:09.432Z,97066.63
2022-10-12T21:46:39.713Z,97070.28
2022-10-12T21:49:09.355Z,97066.22
2022-10-12T21:51:38.652Z,97070.94
2022-10-12T21:54:07.794Z,97069.03
2022-10-12T21:56:38.930Z,97056.25
2022-10-12T21:59:07.989Z,97066.06
2022-10-12T22:01:41.967Z,97056.41
2022-10-12T22:04:13.702Z,97056.97
2022-10-12T22:06:43.401Z,97058.88
2022-10-12T22:09:17.047Z,97053.59
2022-10-12T22:11:46.955Z,97057.66
2022-10-12T22:14:18.193Z,97059.38
2022-10-12T22:16:48.679Z,97043.94
2022-10-12T22:19:19.479Z,97047.63
2022-10-12T22:21:51.035Z,97063.97
2022-10-12T22:24:22.293Z,97061.91
2022-10-12T22:26:50.901Z,97057.81
2022-10-12T22:29:19.325Z,97045.25
2022-10-12T22:31:49.136Z,97048.56
2022-10-12T22:34:17.554Z,97050.63
2022-10-12T22:36:46.657Z,97049.88
2022-10-12T22:39:15.996Z,97052.59
2022-10-12T22:41:45.987Z,97053.91
2022-10-12T22:44:14.409Z,97050.09
2022-10-12T22:46:42.831Z,97053.91
2022-10-12T22:49:12.878Z,97046.56
2022-10-12T22:51:41.766Z,97059.19
2022-10-12T22:54:11.055Z,97054.25
2022-10-12T22:56:42.989Z,97047.22
2022-10-12T22:59:14.156Z,97048.31
2022-10-12T23:01:42.688Z,97037.16
2022-10-12T23:04:12.595Z,97032.53
2022-10-12T23:06:41.115Z,97035.44
2022-10-12T23:09:09.842Z,97025.84
2022-10-12T23:11:38.584Z,97034.03
2022-10-12T23:14:06.986Z,97026.13
2022-10-12T23:16:35.422Z,97022.56
2022-10-12T23:19:06.824Z,97029.56
2022-10-12T23:21:37.151Z,97033.34
2022-10-12T23:24:06.408Z,97031.56
2022-10-12T23:26:35.968Z,97031.97
2022-10-12T23:29:04.951Z,97032.31
2022-10-12T23:31:35.929Z,97030.97
2022-10-12T23:34:06.567Z,97024.56
2022-10-12T23:36:37.135Z,97032.22
2022-10-12T23:39:06.493Z,97034.13
2022-10-12T23:41:35.640Z,97033.28
2022-10-12T23:44:04.214Z,97025.28
2022-10-12T23:46:33.743Z,97023.28
2022-10-12T23:49:02.205Z,97025.69
2022-10-12T23:51:31.299Z,97022.38
2022-10-12T23:54:01.664Z,97022.78
2022-10-12T23:56:30.171Z,97025.59
2022-10-12T23:59:02.864Z,97027.50
